Observations for EDINBURGH AIRPORT, United Kingdom (EGPH)

EGPH 230950Z 25020G31KT 9999 SCT015 12/10 Q1024 
EGPH 230920Z 25021KT 9999 SCT015 12/09 Q1023
EGPH 230850Z 25025KT 9999 SCT015 12/09 Q1023
EGPH 230820Z 25022KT 9999 SCT014 11/09 Q1023
EGPH 230750Z 25018G29KT 9999 SCT015 11/09 Q1024 
EGPH 230720Z 26019KT 9999 SCT015 11/08 Q1024
EGPH 230650Z 26020G31KT 9999 SCT019 11/08 Q1023 
EGPH 230620Z 25017G27KT 9999 BKN021 11/08 Q1023 
EGPH 230550Z 25017G28KT 9999 BKN023 11/07 Q1023 
EGPH 230520Z 25022G33KT 9999 BKN024 OVC034 11/07 Q1023  
EGPH 230450Z 26020G31KT 230V300 9999 SCT023 BKN039 11/07 Q1023  
EGPH 230420Z 26022G32KT 9999 BKN023 11/07 Q1023 
EGPH 230350Z 25021G34KT 9999 OVC021 11/08 Q1024 
EGPH 230320Z 25020G31KT 9999 OVC019 11/08 Q1024 
EGPH 230250Z 25020KT 9999 OVC016 11/08 Q1024
EGPH 230220Z 25020G31KT 9999 BKN016 11/08 Q1024 
EGPH 230150Z 26021G32KT 9999 BKN019 BKN044 11/08 Q1025  
EGPH 230120Z 25019KT 9999 OVC022 11/07 Q1025
EGPH 230050Z 25016G29KT 9999 BKN021 11/08 Q1026 
EGPH 230020Z 25018KT 9999 OVC023 11/07 Q1026
EGPH 222350Z 25018G28KT 9999 BKN022 OVC041 11/07 Q1026  
EGPH 222320Z 25022G36KT 9999 SCT022 BKN045 11/07 Q1026  
EGPH 222250Z 25021G32KT 9999 BKN023 11/07 Q1027 
EGPH 222220Z 26019KT 9999 BKN023 11/07 Q1027
EGPH 222150Z 25020KT 9999 BKN023 OVC034 11/07 Q1028 
EGPH 222120Z 25020KT 9999 BKN023 11/07 Q1028
EGPH 222050Z 26019G29KT 9999 SCT026 11/07 Q1028 
EGPH 222020Z 25020KT 9999 SCT025 11/07 Q1028
EGPH 221950Z 25019KT 9999 SCT028 11/06 Q1028
EGPH 221920Z 25019G29KT 9999 FEW027 SCT046 11/07 Q1029  
EGPH 221850Z 25021KT 9999 FEW027 11/06 Q1029
EGPH 221820Z 26021G32KT 9999 FEW027 11/06 Q1029 
EGPH 221750Z 26019G31KT 9999 SCT027 11/06 Q1029 
EGPH 221720Z 26015KT 240V300 9999 SCT026 11/06 Q1030
EGPH 221650Z 26020KT 9999 SCT023 11/06 Q1030
EGPH 221620Z 26018G32KT 9999 SCT022 11/07 Q1030 
EGPH 221550Z 25018KT 220V280 9999 SCT023 11/07 Q1030
EGPH 221520Z 26018G28KT 9999 FEW020 SCT035 11/08 Q1031  
EGPH 221450Z 25017G27KT 9999 SCT020 11/08 Q1032 
EGPH 221420Z 26019KT 9999 FEW020 12/07 Q1031
EGPH 221350Z 26017KT 9999 FEW025 12/07 Q1032
EGPH 221320Z 25019KT 9999 FEW022 11/07 Q1032
EGPH 221250Z 26016G29KT 9999 SCT028 12/06 Q1033 
EGPH 221220Z 25018KT 9999 FEW026 SCT038 11/06 Q1033 
EGPH 221150Z 25015KT 9999 FEW028 SCT040 11/06 Q1034 
EGPH 221120Z 25016KT 9999 SCT041 11/06 Q1034
EGPH 221050Z 24018KT 9999 SCT045 11/06 Q1034
EGPH 221020Z 25016KT 9999 SCT048 11/06 Q1035
EGPH 220950Z 25013KT 9999 FEW042 10/06 Q1034
EGPH 220920Z 23013KT 9999 FEW039 10/07 Q1034